Date,TemperatureHighF,TemperatureAvgF,TemperatureLowF,DewpointHighF,DewpointAvgF,DewpointLowF,HumidityHigh,HumidityAvg,HumidityLow,PressureMaxIn,PressureMinIn,WindSpeedMaxMPH,WindSpeedAvgMPH,GustSpeedMaxMPH,PrecipitationSumIn
2013-1-1,37.2,30.8,19.9,24.8,18.2,5.2,78,60,47,29.90,29.70,7,2,18,0.02
2013-1-2,30.8,22.1,11.1,12.7,8.4,2.5,77,56,43,30.06,29.86,9,1,17,0.02
2013-1-3,27.0,17.8,4.1,13.2,3.5,-5.1,68,54,39,30.10,29.93,5,0,13,0.01
2013-1-4,38.3,28.6,16.7,24.0,18.2,11.8,86,66,50,29.93,29.78,7,1,17,0.06
2013-1-5,40.9,31.8,21.8,23.0,19.5,16.3,81,61,44,30.18,29.83,13,2,22,0.05
2013-1-6,43.1,32.6,22.9,29.2,24.7,17.9,88,74,52,30.13,29.85,5,0,10,0.03
2013-1-7,39.3,29.9,19.5,27.2,21.1,15.4,90,72,43,30.31,29.91,8,1,18,0.01
2013-1-8,48.2,32.7,18.0,29.2,23.6,14.5,91,71,45,30.30,30.21,6,1,12,0.00
2013-1-9,42.1,32.3,20.5,34.8,27.1,18.1,93,82,66,30.30,29.98,7,0,13,0.00
2013-1-10,44.8,38.5,26.3,30.0,23.4,21.1,89,56,39,30.46,30.04,10,3,24,0.00
2013-1-11,35.2,29.7,22.9,32.4,25.5,19.9,96,85,68,30.45,30.08,2,0,6,0.22
2013-1-12,41.8,38.0,33.5,40.7,37.3,32.5,99,97,96,30.10,30.02,3,0,6,0.08
2013-1-13,50.4,44.2,39.6,47.4,43.1,39.1,100,96,83,30.07,29.91,3,0,12,0.01
2013-1-14,55.6,47.0,37.6,52.0,39.9,24.8,99,79,49,30.21,29.80,9,2,17,0.01
2013-1-15,38.9,35.8,30.7,27.7,24.9,22.9,79,65,53,30.25,30.14,5,1,10,0.01
2013-1-16,34.1,31.8,29.7,31.5,29.5,24.2,96,92,67,30.16,29.74,3,0,6,0.01
2013-1-17,41.2,32.9,26.5,34.1,25.7,13.2,97,77,51,30.03,29.77,7,1,16,0.31
2013-1-18,28.4,23.4,19.6,14.5,3.7,-4.3,59,43,29,30.38,29.96,9,2,20,0.00
2013-1-19,44.3,35.8,21.6,31.6,22.6,8.7,76,59,49,30.30,29.80,6,2,12,0.06
2013-1-20,51.0,40.4,27.9,30.5,23.3,6.3,73,52,20,29.90,29.53,13,3,26,0.01
2013-1-21,29.4,25.0,19.5,21.5,13.2,5.3,88,63,39,30.02,29.71,7,1,13,0.00
2013-1-22,23.0,19.1,12.4,20.1,0.7,-9.5,91,48,27,30.05,29.68,12,3,22,0.00
2013-1-23,17.4,11.8,7.6,-3.8,-7.3,-10.3,58,42,28,30.11,30.03,13,2,20,0.00
2013-1-24,20.0,11.2,1.1,-1.2,-8.0,-13.0,72,44,25,30.23,30.05,12,3,22,0.00
2013-1-25,22.4,16.6,8.6,13.5,-2.7,-8.7,84,44,27,30.28,29.98,5,1,13,0.00
2013-1-26,25.6,16.4,7.7,13.2,4.5,-0.3,84,62,38,30.23,29.93,8,2,17,0.00
2013-1-27,31.5,19.3,7.0,7.3,1.0,-3.7,81,48,23,30.40,30.23,8,1,14,0.00
2013-1-28,31.8,24.6,14.9,30.0,17.5,2.8,95,76,35,30.39,29.90,6,0,12,0.00
2013-1-29,34.9,31.0,27.0,31.4,28.4,25.3,96,90,82,30.08,29.91,3,0,6,0.19
2013-1-30,55.9,44.6,32.9,54.9,43.5,31.4,100,96,91,30.05,29.34,8,2,23,0.04
2013-1-31,59.6,46.9,30.9,58.2,33.4,9.4,97,63,32,29.57,28.91,16,8,43,0.99
2013-2-1,32.1,27.1,20.8,17.1,7.8,1.6,59,44,30,30.06,29.58,12,4,21,0.00
2013-2-2,31.3,24.1,15.4,16.8,7.5,1.8,75,50,29,30.18,29.98,8,2,16,0.00
2013-2-3,31.3,24.0,17.8,17.8,15.7,13.1,88,71,50,29.99,29.68,5,0,10,0.00
2013-2-4,30.0,24.7,18.1,15.5,8.1,2.4,80,51,34,29.87,29.67,9,2,21,0.00
2013-2-5,30.3,25.7,22.5,22.4,15.3,5.1,87,65,42,29.92,29.83,3,0,9,0.00
2013-2-6,38.3,30.2,23.9,25.6,16.6,-2.9,89,61,27,30.26,29.82,7,2,16,0.03
2013-2-7,33.2,25.2,16.9,11.3,5.7,1.9,63,44,28,30.44,30.26,5,1,9,0.00
2013-2-8,32.1,27.9,20.5,30.3,22.0,6.1,95,80,42,30.34,29.54,13,4,27,0.00
2013-2-9,24.2,21.6,15.4,22.5,12.0,-2.0,93,70,33,30.19,29.58,15,7,31,0.01
2013-2-10,37.9,17.6,-2.0,12.1,2.8,-7.8,80,55,27,30.38,30.19,3,0,6,0.21
2013-2-11,37.3,29.8,17.3,36.8,26.7,10.4,98,88,74,30.26,29.56,2,0,5,0.13
2013-2-12,43.9,37.6,32.1,36.3,28.9,23.0,98,73,49,29.85,29.57,8,1,16,0.07
2013-2-13,46.3,37.2,33.2,26.5,23.0,20.1,72,57,40,29.82,29.62,8,1,18,0.00
2013-2-14,46.8,33.4,22.9,28.6,24.5,20.7,94,73,40,29.83,29.63,6,1,10,0.01
2013-2-15,50.8,38.6,30.1,33.9,31.0,25.8,92,76,52,29.91,29.82,5,1,16,0.00
2013-2-16,39.9,34.0,29.8,32.3,24.9,16.4,94,71,46,29.88,29.65,7,2,19,0.07
2013-2-17,29.8,23.9,15.7,16.4,4.0,-2.3,61,42,31,29.76,29.47,14,7,32,0.00
2013-2-18,31.2,21.4,13.6,9.6,0.9,-3.9,66,42,24,30.10,29.76,12,4,22,0.00
2013-2-19,46.1,33.5,19.3,38.8,25.9,9.2,97,74,53,30.11,29.52,8,1,18,0.20
2013-2-20,37.8,30.9,24.8,36.8,15.7,5.7,96,55,38,29.79,29.52,12,4,23,0.00
2013-2-21,31.0,26.3,21.9,12.9,10.3,7.9,57,50,44,30.04,29.77,10,5,21,0.00
2013-2-22,41.9,25.9,14.8,25.6,16.4,10.0,85,68,44,30.32,30.19,6,0,15,0.00
2013-2-23,38.2,34.9,32.8,34.4,29.8,24.7,96,82,71,30.22,29.77,5,1,12,0.10
2013-2-24,38.6,34.9,32.5,34.9,32.2,26.7,96,90,75,29.83,29.64,7,2,15,0.06
2013-2-25,44.3,35.1,24.5,29.2,26.4,21.5,91,71,52,30.16,29.83,7,1,12,0.00
2013-2-26,42.3,36.6,32.1,29.9,27.6,23.5,86,71,53,30.24,30.00,6,1,13,0.02
2013-2-27,42.2,38.7,34.4,41.1,36.9,30.2,98,93,81,30.00,29.48,10,2,18,0.98
2013-2-28,51.4,38.6,33.5,38.7,34.7,32.5,97,87,57,29.54,29.45,3,0,9,0.01
2013-3-1,45.1,38.6,32.2,34.4,29.3,23.9,94,71,47,29.63,29.47,8,2,15,0.00
2013-3-2,39.3,35.5,32.2,27.0,24.9,23.4,74,65,55,29.64,29.57,8,2,14,0.00
2013-3-3,37.5,31.5,28.7,25.1,21.6,18.3,77,67,51,29.60,29.53,9,2,20,0.00
2013-3-4,39.0,31.8,26.3,22.0,19.6,17.8,71,61,47,29.74,29.60,10,4,21,0.00
2013-3-5,48.3,36.8,26.3,28.5,23.7,18.7,78,59,45,29.96,29.74,8,2,16,0.00
2013-3-6,43.4,37.5,31.2,35.5,30.1,24.9,84,75,57,29.94,29.88,16,5,31,0.01
2013-3-7,37.0,33.6,31.5,32.6,29.6,27.0,96,86,69,29.96,29.88,12,5,24,0.08
2013-3-8,32.1,31.5,31.0,31.1,30.6,30.2,97,97,96,29.91,29.85,0,0,0,0.01
2013-3-9,56.8,43.4,29.5,25.7,22.6,16.8,78,48,23,30.25,30.11,5,0,7,0.01
2013-3-10,54.9,36.6,22.1,34.1,27.6,19.4,92,72,39,30.32,30.20,6,1,12,0.00
2013-3-11,53.6,43.7,36.5,42.1,37.0,31.0,88,78,59,30.24,30.02,8,2,16,0.00
2013-3-12,53.9,50.1,42.8,52.7,46.9,35.1,96,89,75,30.03,29.60,12,3,21,0.81
2013-3-13,43.6,38.0,31.6,35.5,29.6,26.4,86,72,52,29.75,29.72,7,1,13,0.00
2013-3-14,38.5,31.9,27.9,26.3,17.7,7.3,76,57,35,29.80,29.72,12,3,26,0.00
2013-3-15,43.9,33.0,25.0,28.5,15.9,6.3,75,50,28,29.83,29.60,10,3,23,0.00
2013-3-16,41.2,34.5,29.0,27.8,16.3,8.0,74,48,30,29.80,29.65,6,1,16,0.00
2013-3-17,38.3,31.5,25.0,15.6,8.6,2.9,58,39,24,30.22,29.80,10,3,20,0.00
2013-3-18,39.7,29.5,18.0,27.3,8.0,-1.7,92,44,22,30.36,30.07,9,1,18,0.00
2013-3-19,35.9,32.5,29.2,33.5,30.3,27.2,95,92,85,30.07,29.57,9,2,15,0.39
2013-3-20,40.9,33.1,26.3,27.5,19.2,15.2,84,58,36,29.73,29.66,12,2,18,0.19
2013-3-21,38.3,31.0,25.0,23.8,17.6,8.5,79,59,31,29.74,29.53,7,1,12,0.03
2013-3-22,40.6,31.6,19.7,22.9,16.3,9.2,76,54,38,29.73,29.58,8,2,15,0.00
2013-3-23,44.9,37.0,31.6,24.2,19.9,14.7,68,51,32,29.78,29.65,14,4,29,0.00
2013-3-24,48.4,38.1,27.3,24.4,21.4,18.8,74,52,36,29.80,29.63,9,2,17,0.00
2013-3-25,47.0,38.4,31.0,28.5,25.2,22.9,73,60,43,29.67,29.38,12,3,21,0.00
2013-3-26,49.4,40.2,29.1,29.6,24.4,16.2,77,55,31,29.73,29.47,8,2,17,0.00
2013-3-27,54.4,39.5,23.8,27.5,22.4,16.4,86,54,25,29.82,29.70,12,2,21,0.00
2013-3-28,52.6,43.3,33.4,34.1,29.7,25.7,81,60,41,29.97,29.81,7,2,14,0.00
2013-3-29,55.4,45.7,31.2,33.2,28.9,24.8,87,54,32,30.00,29.92,7,2,13,0.00
2013-3-30,58.7,45.7,31.5,30.2,23.9,16.4,83,47,20,30.03,29.95,9,2,16,0.00
2013-3-31,57.6,43.1,26.6,41.3,28.0,21.4,89,59,27,30.04,29.58,12,2,23,0.05
2013-4-1,61.2,45.6,34.1,45.8,36.6,14.5,96,73,39,29.77,29.47,12,3,22,0.16
2013-4-2,42.5,34.0,24.5,18.2,12.5,5.9,73,43,24,29.92,29.77,10,3,20,0.00
2013-4-3,46.2,36.3,28.7,15.3,12.0,9.6,52,37,24,30.17,29.91,10,4,21,0.00
2013-4-4,57.5,39.9,24.3,30.4,19.0,11.6,73,46,22,30.27,29.99,8,2,20,0.00
2013-4-5,61.9,46.1,38.2,31.0,25.3,13.1,74,48,18,29.99,29.59,13,3,24,0.00
2013-4-6,51.3,39.7,32.4,23.8,11.2,2.7,60,33,15,30.23,29.86,14,3,23,0.00
2013-4-7,58.4,44.0,29.8,41.6,29.9,15.2,83,59,39,30.23,29.93,14,3,27,0.00
2013-4-8,73.8,54.1,38.3,43.8,38.3,32.0,96,61,24,29.99,29.88,7,1,13,0.00
2013-4-9,74.4,60.7,48.6,52.5,43.4,36.8,90,57,28,29.94,29.79,10,2,20,0.00
2013-4-10,68.3,56.3,48.9,52.6,48.4,39.4,96,77,54,29.89,29.74,8,1,16,0.61
2013-4-11,57.5,50.7,42.5,49.1,39.1,24.5,96,67,35,30.03,29.74,9,3,20,0.00
2013-4-12,42.8,40.4,37.5,38.3,35.2,29.7,96,82,60,30.03,29.69,8,2,21,0.45
2013-4-13,54.7,44.9,36.0,37.9,34.9,32.9,96,71,45,29.85,29.67,7,2,14,0.09
2013-4-14,52.6,44.5,34.7,37.3,30.8,21.8,90,61,37,30.15,29.84,12,2,22,0.00
2013-4-15,65.0,46.1,31.3,34.3,29.5,24.9,84,56,28,30.31,30.14,7,1,13,0.00
2013-4-16,67.6,51.4,34.6,50.6,42.4,31.7,93,73,46,30.31,30.02,13,2,25,0.00
2013-4-17,69.9,57.7,48.0,51.9,36.1,25.8,90,48,23,30.23,30.02,10,2,16,0.01
2013-4-18,63.5,51.6,37.6,46.2,35.5,26.9,91,59,27,30.31,30.05,13,2,21,0.00
2013-4-19,74.0,61.5,52.9,61.9,57.0,46.4,97,86,62,30.05,29.58,12,3,27,0.03
2013-4-20,62.1,52.0,41.5,60.7,37.1,22.0,95,62,27,30.19,29.56,10,3,20,0.36
2013-4-21,57.6,43.4,33.8,29.8,20.4,16.1,63,41,23,30.57,30.19,13,3,20,0.00
2013-4-22,62.4,46.3,32.4,31.4,28.4,22.4,85,54,26,30.62,30.46,10,3,20,0.00
2013-4-23,46.0,41.4,36.6,38.2,34.2,28.2,84,76,62,30.47,30.01,9,4,20,0.00
2013-4-24,75.1,54.4,42.2,47.8,42.5,37.7,86,68,30,30.01,29.74,9,3,25,0.00
2013-4-25,63.9,53.2,41.3,50.8,33.0,15.7,94,52,18,30.18,29.77,9,3,21,0.07
2013-4-26,69.7,51.0,32.1,37.9,28.8,22.4,84,47,21,30.32,30.18,6,1,13,0.00
2013-4-27,70.4,53.1,35.2,41.4,33.3,28.0,80,50,23,30.33,30.18,7,1,14,0.00
2013-4-28,72.3,55.5,38.6,41.2,35.2,26.3,92,51,25,30.24,30.13,8,1,22,0.00
2013-4-29,65.2,56.1,48.6,46.0,37.3,22.9,83,52,24,30.18,30.14,7,1,13,0.00
2013-4-30,75.1,57.7,44.9,41.6,32.9,21.3,79,45,17,30.27,30.16,8,1,15,0.00
2013-5-1,78.9,56.0,34.9,44.0,36.0,28.5,84,51,23,30.41,30.26,8,1,17,0.00
2013-5-2,84.5,59.7,39.6,45.5,40.6,30.9,95,56,20,30.39,30.20,8,1,16,0.00
2013-5-3,74.3,57.5,45.4,44.4,38.7,29.5,76,51,30,30.42,30.26,7,2,13,0.00
2013-5-4,78.8,56.3,40.3,46.4,40.7,32.9,96,62,21,30.31,30.14,6,1,15,0.00
2013-5-5,76.0,52.1,34.7,43.2,37.7,31.8,92,63,24,30.23,30.10,6,1,18,0.00
2013-5-6,77.7,57.0,41.5,49.1,44.3,38.0,91,66,34,30.20,30.05,9,1,14,0.00
2013-5-7,80.0,61.3,42.9,60.0,49.8,41.2,96,69,35,30.10,30.01,6,1,13,0.00
2013-5-8,75.0,62.5,54.7,62.1,57.6,52.1,94,85,57,30.08,29.95,12,2,24,0.47
2013-5-9,67.3,59.5,52.6,60.4,56.7,51.5,98,91,68,29.96,29.80,5,0,9,0.26
2013-5-10,84.6,65.9,52.3,59.5,55.2,51.8,99,72,38,29.90,29.83,5,0,16,0.01
2013-5-11,67.5,62.3,58.6,62.0,58.8,54.0,96,89,75,29.84,29.61,7,1,17,0.36
2013-5-12,71.3,60.2,50.1,59.4,48.0,27.3,97,68,34,29.78,29.52,9,1,21,0.05
2013-5-13,60.7,49.8,41.5,33.8,29.7,24.6,72,47,29,29.99,29.78,8,1,13,0.00
2013-5-14,58.9,47.3,35.3,35.4,30.4,23.7,86,56,28,30.00,29.91,6,1,14,0.00
2013-5-15,62.6,50.1,33.1,52.2,42.0,31.0,94,76,41,30.00,29.61,14,2,23,0.01
2013-5-16,84.5,64.4,43.2,53.6,43.2,31.4,98,57,18,29.74,29.58,7,1,16,0.00
2013-5-17,72.1,61.3,49.5,43.6,38.7,30.6,77,45,26,30.13,29.74,12,2,20,0.00
2013-5-18,73.7,57.7,41.8,49.4,44.0,39.1,94,64,31,30.23,30.13,7,0,15,0.00
2013-5-19,63.1,55.7,47.5,56.3,51.5,44.9,97,86,70,30.27,30.12,6,0,12,0.13
2013-5-20,87.4,68.5,56.3,67.2,61.5,55.4,98,81,44,30.12,29.84,6,0,13,0.01
2013-5-21,92.5,73.5,60.9,71.0,64.7,56.5,98,77,48,29.89,29.71,8,1,20,0.00
2013-5-22,81.4,65.5,55.1,68.3,60.2,51.0,96,84,64,29.90,29.74,7,1,14,0.05
2013-5-23,72.0,67.6,64.2,67.9,65.0,63.1,98,91,82,29.82,29.70,6,1,14,1.09
2013-5-24,67.5,59.3,46.2,66.7,56.8,44.6,100,92,73,29.81,29.57,8,2,16,0.70
2013-5-25,47.1,45.4,43.8,45.0,43.0,38.1,97,91,78,29.80,29.72,10,3,21,0.36
2013-5-26,59.6,50.7,43.2,43.3,40.3,37.7,89,69,47,30.07,29.73,10,3,27,0.00
2013-5-27,75.8,57.6,38.5,44.4,39.4,32.3,96,58,25,30.11,30.00,7,1,14,0.00
2013-5-28,74.6,58.4,43.3,56.1,47.7,41.6,95,71,33,30.15,30.08,7,1,14,0.00
2013-5-29,81.1,66.9,57.8,67.8,61.7,56.1,98,85,62,30.08,29.89,9,1,24,1.33
2013-5-30,93.4,75.2,61.0,72.4,66.7,60.7,100,79,40,30.03,29.93,7,0,22,0.06
2013-5-31,96.6,78.3,64.3,72.6,66.3,56.9,99,71,27,30.03,29.88,5,0,15,0.01
2013-6-1,93.2,78.0,64.5,73.0,66.3,61.5,92,69,46,29.91,29.80,13,1,20,0.00
2013-6-2,88.6,75.8,67.6,70.8,66.1,63.6,89,73,52,29.82,29.66,9,2,20,0.00
2013-6-3,81.1,70.4,62.6,68.0,63.1,45.5,97,79,54,29.80,29.69,8,1,13,0.63
2013-6-4,73.4,62.6,53.6,48.2,43.2,35.2,76,50,35,30.02,29.80,9,2,17,0.00
2013-6-5,80.3,62.7,47.7,51.1,47.8,45.1,93,62,31,30.13,30.02,9,0,18,0.00
2013-6-6,73.7,61.2,49.6,59.8,52.4,46.7,96,75,49,30.11,30.00,8,1,18,0.09
2013-6-7,61.3,57.8,54.5,60.6,56.7,53.0,98,96,91,30.00,29.66,5,0,12,2.79
2013-6-8,79.3,64.7,52.5,64.6,57.3,52.0,99,79,54,29.95,29.54,8,2,14,0.70
2013-6-9,83.8,68.4,54.8,59.3,56.2,52.1,97,69,36,30.10,29.95,6,0,13,0.00
2013-6-10,73.9,63.7,56.7,63.2,59.1,55.5,97,86,64,30.11,29.85,7,0,14,0.28
2013-6-11,75.3,63.2,58.9,68.9,61.4,58.3,99,94,72,29.85,29.47,6,0,10,1.04
2013-6-12,72.8,65.2,56.8,58.4,52.6,48.9,92,65,46,29.77,29.54,12,3,22,0.00
2013-6-13,59.0,55.7,51.1,57.6,53.8,49.7,97,93,83,29.75,29.53,8,1,14,1.22
2013-6-14,76.8,60.2,50.8,56.3,52.9,49.3,98,80,39,29.75,29.52,7,2,15,1.62
2013-6-15,81.2,65.9,51.4,56.4,51.1,41.7,98,65,27,29.89,29.75,6,1,13,0.00
2013-6-16,77.2,66.2,51.6,64.5,56.9,50.2,97,74,51,29.89,29.65,7,0,17,0.00
2013-6-17,89.6,71.3,59.0,64.7,61.1,55.1,98,74,34,29.84,29.71,12,0,23,0.00
2013-6-18,85.0,66.4,59.3,66.9,61.8,57.0,97,87,51,29.84,29.74,12,1,21,0.40
2013-6-19,78.9,64.6,54.5,57.0,51.3,44.2,97,67,35,30.08,29.83,6,1,12,0.01
2013-6-20,83.4,65.1,47.7,57.8,51.7,46.0,97,66,34,30.20,30.08,6,1,15,0.00
2013-6-21,85.1,71.2,57.8,66.0,58.8,53.6,88,66,50,30.19,30.11,5,0,12,0.00
2013-6-22,89.3,73.0,61.2,62.7,57.6,53.6,78,60,31,30.16,30.05,7,1,18,0.00
2013-6-23,92.8,77.1,63.4,70.5,64.5,56.3,85,67,43,30.10,29.95,8,1,20,0.00
2013-6-24,96.1,80.4,71.1,74.0,68.9,62.2,93,71,39,29.97,29.82,5,0,20,0.00
2013-6-25,93.8,78.3,66.8,72.5,68.2,64.4,93,74,42,29.89,29.67,9,0,17,0.02
2013-6-26,87.4,76.7,70.4,72.1,69.8,66.8,97,81,51,29.74,29.66,3,0,9,0.00
2013-6-27,86.4,73.7,67.3,72.1,69.3,66.1,98,87,62,29.75,29.57,6,1,13,0.05
2013-6-28,83.4,75.0,68.9,74.9,70.4,67.3,97,86,68,29.58,29.38,9,2,20,1.28
2013-6-29,86.1,75.7,68.9,71.3,69.0,67.4,97,81,55,29.63,29.41,9,2,20,0.00
2013-6-30,87.4,76.6,71.1,73.8,70.3,68.7,92,82,59,29.84,29.63,8,2,17,0.00
2013-7-1,78.3,74.8,72.8,75.0,71.9,70.1,93,91,84,29.99,29.84,6,1,12,0.13
2013-7-2,86.5,77.1,72.8,74.4,71.8,70.6,95,84,63,30.09,29.98,8,1,16,0.01
2013-7-3,89.3,78.5,72.0,76.3,71.5,69.2,92,80,57,30.15,30.07,5,1,13,0.01
2013-7-4,93.8,81.8,72.5,75.6,72.7,70.5,96,76,50,30.15,30.03,6,0,13,0.00
2013-7-5,96.3,82.9,72.7,75.8,72.3,69.5,92,72,44,30.10,29.97,5,0,12,0.00
2013-7-6,95.9,82.5,73.9,74.2,72.1,70.5,90,72,44,30.02,29.91,5,0,10,0.00
2013-7-7,97.1,81.5,72.5,77.1,73.8,70.5,96,80,46,29.95,29.81,5,0,12,0.17
2013-7-8,93.2,78.7,69.8,74.8,70.6,67.7,97,79,45,29.96,29.83,5,0,12,0.63
2013-7-9,88.4,75.3,67.3,74.0,70.1,67.0,100,85,56,30.00,29.92,7,0,12,0.11
2013-7-10,87.4,76.9,73.3,77.4,73.1,70.5,99,89,64,29.95,29.71,8,1,20,1.19
2013-7-11,83.4,75.5,69.1,75.7,70.8,63.9,100,87,55,29.84,29.70,3,0,10,0.39
2013-7-12,83.4,73.3,68.0,67.5,62.3,53.8,91,69,55,30.08,29.84,6,1,14,0.03
2013-7-13,80.9,72.5,66.3,74.1,66.7,56.2,97,83,61,30.22,30.08,3,0,7,0.02
2013-7-14,93.2,80.7,73.7,74.8,73.3,70.0,99,80,48,30.24,30.12,6,0,12,0.02
2013-7-15,93.6,82.2,72.5,74.2,71.1,65.8,97,72,44,30.14,30.03,7,1,16,0.02
2013-7-16,95.9,81.6,69.6,72.3,68.9,63.5,96,68,39,30.10,30.02,7,1,14,0.01
2013-7-17,98.0,82.2,70.3,75.6,70.9,68.0,96,71,39,30.12,29.94,5,0,12,0.01
2013-7-18,98.5,84.9,74.6,75.2,72.2,68.8,86,68,40,29.95,29.85,5,0,10,0.01
2013-7-19,97.3,86.1,77.2,78.8,74.6,71.7,89,70,47,29.86,29.66,8,0,14,0.00
2013-7-20,94.3,84.0,72.7,76.4,71.8,61.0,89,68,45,29.75,29.59,6,0,12,0.00
2013-7-21,92.3,77.6,68.9,68.0,64.0,57.6,87,65,33,29.89,29.75,3,0,9,0.00
2013-7-22,88.3,76.3,65.6,72.5,68.2,63.8,95,77,54,29.91,29.75,7,1,14,0.00
2013-7-23,89.9,76.9,72.7,76.9,72.3,70.4,98,87,54,29.75,29.46,7,0,14,0.17
2013-7-24,81.6,74.4,66.4,72.6,65.7,56.1,98,76,54,29.85,29.51,6,1,17,0.01
2013-7-25,66.4,61.6,58.9,59.1,53.7,46.7,95,76,62,30.00,29.85,6,1,18,0.01
2013-7-26,77.6,66.1,60.2,65.1,61.6,58.8,97,86,65,29.97,29.90,7,1,16,0.01
2013-7-27,86.3,72.6,62.6,67.7,63.9,61.1,98,77,44,29.98,29.90,7,1,14,0.00
2013-7-28,67.4,66.6,65.8,64.9,64.1,63.3,94,92,91,29.92,29.90,1,0,4,0.02
2013-7-30,82.4,72.8,63.2,58.5,56.8,53.6,84,59,41,30.04,29.98,5,1,12,0.01
2013-7-31,85.1,70.5,58.0,62.8,59.0,53.0,96,70,37,30.07,29.95,5,0,10,0.01
2013-8-1,80.1,67.8,61.2,67.8,63.6,59.9,97,87,58,29.97,29.77,7,0,18,0.00
2013-8-2,85.9,72.4,64.7,67.5,63.2,58.9,100,76,42,29.80,29.71,5,0,12,0.01
2013-8-3,82.6,70.1,62.1,66.8,62.7,59.8,93,78,54,29.80,29.72,7,0,18,0.01
2013-8-4,79.8,65.9,56.0,63.7,57.0,51.5,99,76,47,29.85,29.74,8,1,16,0.00
2013-8-5,78.5,64.0,51.7,55.9,50.4,44.0,97,66,33,29.97,29.85,9,1,20,0.01
2013-8-6,84.0,66.0,50.4,59.9,54.6,49.0,97,71,36,30.06,29.97,7,1,15,0.00
2013-8-7,81.8,68.5,55.6,62.4,59.0,54.2,96,74,47,30.11,30.02,9,1,18,0.01
2013-8-8,84.0,73.9,68.8,72.3,68.5,62.7,97,84,67,30.02,29.93,7,1,15,0.00
2013-8-9,77.8,74.4,72.8,77.2,72.7,69.4,98,94,88,29.94,29.69,10,1,20,0.03
2013-8-10,85.3,72.7,60.1,72.9,61.9,50.2,98,72,40,29.96,29.74,8,1,18,0.03
2013-8-11,84.1,67.0,51.0,59.7,54.3,47.3,96,67,39,30.03,29.92,6,0,9,0.03
2013-8-12,87.0,71.6,62.1,63.1,60.4,54.0,95,71,41,29.95,29.83,5,0,10,0.00
2013-8-13,76.5,70.6,65.9,70.4,65.8,61.5,96,85,65,29.86,29.61,6,0,12,0.01
2013-8-14,74.4,65.5,55.3,63.7,54.0,51.0,91,68,46,29.92,29.64,9,2,17,0.00
2013-8-15,81.1,64.2,50.5,56.3,52.5,48.6,96,69,35,30.06,29.92,6,0,12,0.00
2013-8-16,81.2,65.5,51.6,58.2,54.7,50.5,97,72,38,30.12,30.05,5,0,7,0.00
2013-8-17,85.1,67.8,53.9,61.7,56.3,49.2,97,71,30,30.21,30.12,5,0,9,0.00
2013-8-18,80.3,67.7,58.7,64.2,60.3,56.8,96,79,50,30.20,30.03,2,0,7,0.00
2013-8-19,80.3,69.9,60.0,64.5,61.0,56.9,92,75,53,30.03,29.91,2,0,7,0.00
2013-8-20,88.4,72.7,60.2,64.7,61.6,59.1,97,72,40,30.03,29.93,5,0,12,0.00
2013-8-21,91.4,73.5,59.9,66.5,62.3,58.7,97,71,39,30.09,29.95,3,0,12,0.00
2013-8-22,82.6,73.8,66.0,72.8,68.3,63.3,96,83,66,29.97,29.77,5,0,13,0.00
2013-8-23,82.8,72.5,63.1,69.5,60.3,52.0,95,68,37,30.04,29.77,8,1,15,0.00
2013-8-24,81.2,65.6,51.7,55.7,52.7,49.2,93,66,37,30.26,30.04,6,1,13,0.00
2013-8-25,88.0,67.6,51.3,59.6,54.0,45.6,97,68,26,30.31,30.12,2,0,12,0.00
2013-8-26,78.6,69.5,65.2,68.1,62.3,57.1,96,78,59,30.13,29.82,2,0,10,0.37
2013-8-27,85.7,74.1,68.1,71.3,69.0,67.7,100,86,57,29.82,29.74,6,1,12,0.96
2013-8-28,89.5,74.2,65.5,72.0,68.4,64.6,99,84,47,29.83,29.75,9,0,21,0.00
2013-8-29,78.5,70.9,65.8,69.3,64.7,60.2,94,81,64,29.97,29.83,3,0,12,0.00
2013-8-30,88.8,72.6,63.2,70.1,64.8,59.6,92,78,51,29.95,29.76,2,0,9,0.00
2013-8-31,82.2,75.1,70.9,73.2,70.7,68.4,94,86,72,29.76,29.70,6,1,12,0.00
2013-9-1,83.0,75.4,70.1,75.4,71.7,69.1,99,89,73,29.77,29.73,6,1,14,0.43
2013-9-2,81.4,74.3,69.3,73.9,71.4,67.4,98,91,75,29.75,29.60,5,0,12,0.28
2013-9-3,76.1,69.9,62.3,71.7,65.0,56.7,99,85,70,29.78,29.61,6,0,12,0.00
2013-9-4,84.0,67.5,56.3,60.1,57.0,53.8,98,73,38,29.88,29.77,5,0,12,0.00
2013-9-5,74.2,63.9,51.4,63.7,53.1,41.9,95,72,34,30.07,29.81,7,1,17,0.00
2013-9-6,72.3,56.2,44.2,47.9,45.3,38.7,96,71,37,30.19,30.05,6,0,12,0.00
2013-9-7,82.5,63.2,47.7,59.2,50.5,45.8,95,68,32,30.05,29.80,3,0,7,0.00
2013-9-8,76.5,66.6,53.2,62.1,53.7,41.3,88,66,36,30.01,29.72,10,1,21,0.00
2013-9-9,75.6,58.1,42.5,52.6,46.2,40.6,95,68,36,30.17,30.01,6,0,12,0.00
2013-9-10,81.6,68.7,58.0,71.7,64.8,52.6,96,87,72,30.08,29.92,9,0,18,0.05
2013-9-11,96.6,80.2,70.1,78.1,72.1,65.6,98,79,49,30.01,29.87,9,1,17,0.00
2013-9-12,88.6,75.7,68.4,74.0,70.1,66.2,97,84,55,29.90,29.60,8,1,16,0.75
2013-9-13,78.2,68.9,59.3,68.7,62.6,53.3,99,82,57,29.72,29.52,7,1,15,0.01
2013-9-14,67.9,58.1,49.9,53.8,49.8,47.6,92,75,56,30.01,29.72,6,1,13,0.00
2013-9-15,74.4,57.1,43.3,52.3,47.9,42.2,98,75,40,30.12,29.99,3,0,12,0.00
2013-9-16,72.3,59.3,49.8,58.2,51.1,35.2,96,76,49,30.19,29.96,7,1,17,0.02
2013-9-17,65.9,51.3,39.1,45.0,39.4,34.9,92,66,38,30.36,30.19,7,1,15,0.00
2013-9-18,78.1,55.0,37.9,50.5,44.7,36.9,97,73,32,30.27,30.08,3,0,7,0.00
2013-9-19,83.4,60.8,45.4,55.2,50.2,44.1,97,72,33,30.10,29.97,3,0,9,0.00
2013-9-20,84.0,61.9,47.0,58.4,52.5,45.9,99,76,30,30.02,29.91,6,0,12,0.00
2013-9-21,76.8,64.2,49.9,66.2,59.1,49.1,100,84,67,29.94,29.61,9,2,20,0.00
2013-9-22,71.3,63.2,53.1,66.7,53.9,42.3,98,74,45,29.80,29.54,8,2,22,0.60
2013-9-23,63.9,52.8,43.2,45.3,42.8,40.2,92,70,48,29.96,29.80,8,1,16,0.00
2013-9-24,71.1,53.1,41.1,45.8,42.3,38.4,93,71,34,29.96,29.76,7,1,14,0.00
2013-9-25,76.4,56.5,41.8,54.7,48.1,40.5,97,77,41,29.89,29.79,3,0,9,0.00
2013-9-26,70.3,58.5,48.3,53.0,49.9,46.5,94,75,45,30.03,29.89,6,0,14,0.00
2013-9-27,63.4,55.0,48.3,52.7,49.9,46.6,96,84,61,30.20,30.03,5,0,10,0.00
2013-9-28,76.8,56.9,44.3,56.1,50.2,43.4,99,81,47,30.26,30.17,3,0,10,0.00
2013-9-29,76.1,56.1,47.4,56.5,50.3,46.5,99,83,45,30.18,30.01,3,0,8,0.00
2013-9-30,74.8,55.7,43.3,54.6,49.0,42.5,99,81,44,30.04,29.88,3,0,10,0.00
2013-10-1,81.9,59.7,45.7,60.7,52.8,44.9,99,81,44,29.92,29.79,2,0,10,0.00
2013-10-2,79.6,64.0,50.5,62.2,57.0,49.6,99,80,51,29.92,29.80,9,0,16,0.00
2013-10-3,80.7,60.5,46.5,55.6,50.3,41.3,98,74,26,30.03,29.92,3,0,7,0.00
2013-10-4,68.0,58.8,51.3,60.5,55.2,50.2,97,88,74,29.99,29.94,6,0,12,0.02
2013-10-5,77.5,64.9,59.2,64.1,60.3,57.6,96,86,63,30.03,29.96,2,0,7,0.00
2013-10-6,64.7,60.2,57.5,61.1,58.5,55.3,99,94,86,30.10,30.00,3,0,12,0.54
2013-10-7,77.0,64.5,57.8,70.6,62.6,56.9,100,94,74,30.01,29.70,16,2,35,0.36
2013-10-8,67.4,55.0,45.1,57.0,46.1,38.3,98,76,36,30.28,29.85,8,1,14,0.00
2013-10-9,66.8,52.4,42.6,46.4,43.5,40.2,95,74,42,30.37,30.26,6,1,13,0.00
2013-10-10,58.3,50.9,43.3,49.9,46.2,41.4,95,85,71,30.27,30.07,5,1,12,0.00
2013-10-11,73.0,58.6,49.4,58.1,51.5,45.6,91,78,59,30.07,29.98,5,1,12,0.00
2013-10-12,69.9,56.9,46.1,56.9,49.9,44.3,96,78,61,30.28,30.05,6,1,16,0.00
2013-10-13,64.2,55.5,48.6,50.9,48.0,44.6,89,76,58,30.35,30.26,5,0,12,0.00
2013-10-14,67.1,51.2,38.2,49.3,44.2,37.2,97,79,47,30.32,30.17,3,0,6,0.00
2013-10-15,75.8,58.5,48.5,54.3,49.1,44.1,93,73,44,30.19,30.05,8,0,13,0.00
2013-10-16,60.9,53.6,46.2,52.5,48.8,44.3,96,85,68,30.08,29.83,2,0,7,0.00
2013-10-17,74.7,62.6,53.1,61.8,57.9,50.8,95,85,61,29.83,29.62,6,0,14,0.01
2013-10-18,68.9,60.0,46.8,60.8,50.3,41.3,95,72,45,29.86,29.55,7,1,14,0.01
2013-10-19,67.3,52.5,39.3,49.2,42.8,37.3,96,72,39,29.90,29.66,7,0,15,0.00
2013-10-20,63.7,52.7,40.2,51.9,40.1,30.9,96,66,32,29.96,29.63,9,1,16,0.02
2013-10-21,69.8,50.6,36.2,43.3,38.8,34.1,95,68,30,30.05,29.91,6,0,12,0.00
2013-10-22,66.9,52.5,41.2,52.4,44.8,37.0,98,77,51,29.91,29.64,5,0,16,0.00
2013-10-23,50.5,43.3,34.4,40.8,36.2,32.6,96,77,52,29.73,29.52,3,0,9,0.00
2013-10-24,54.1,44.4,34.3,35.7,30.1,24.3,90,60,33,29.85,29.61,5,1,13,0.00
2013-10-25,49.9,39.9,31.0,32.4,28.5,26.4,87,66,43,30.10,29.85,8,1,17,0.00
2013-10-26,56.5,42.4,29.8,34.9,29.7,23.9,93,65,31,30.10,29.79,7,1,21,0.00
2013-10-27,57.8,47.0,35.2,36.2,32.0,26.7,85,58,35,30.01,29.74,6,0,15,0.00
2013-10-28,60.2,43.0,29.0,34.9,31.0,26.7,93,66,33,30.26,30.01,7,1,14,0.00
2013-10-29,52.4,39.8,31.8,29.1,26.1,21.9,82,60,33,30.37,30.26,5,0,9,0.00
2013-10-30,54.5,41.5,31.5,44.7,34.1,26.7,93,76,55,30.28,30.10,0,0,5,0.00
2013-10-31,60.4,47.5,34.7,57.8,45.3,33.2,97,92,81,30.16,29.71,5,0,14,0.03
2013-11-1,68.6,62.2,55.0,62.2,57.4,52.4,96,85,65,29.71,29.42,10,1,26,0.11
2013-11-2,68.5,53.6,41.2,52.7,43.7,38.3,97,73,34,29.67,29.51,6,0,13,0.00
2013-11-3,50.1,43.2,32.9,43.7,27.9,13.1,84,56,33,30.36,29.67,9,3,17,0.00
2013-11-4,45.7,32.8,23.6,21.6,16.9,13.9,79,54,30,30.61,30.36,6,1,15,0.00
2013-11-5,53.6,39.0,27.0,36.4,29.2,21.5,84,69,45,30.62,30.42,6,0,12,0.00
2013-11-6,62.1,49.4,35.0,50.2,41.5,32.4,93,76,50,30.42,29.98,6,1,13,0.00
2013-11-7,63.4,52.8,36.6,57.1,48.2,32.1,95,85,71,29.98,29.62,8,1,15,0.13
2013-11-8,48.9,40.2,32.2,35.1,28.6,21.9,93,65,44,30.07,29.79,9,2,17,0.00
2013-11-9,46.0,38.6,27.6,31.8,26.2,22.2,84,62,45,30.17,29.92,3,0,7,0.00
2013-11-10,57.8,46.9,37.5,39.9,34.4,29.5,83,63,40,29.92,29.68,8,1,16,0.00
2013-11-11,52.6,46.1,39.5,31.2,28.5,24.1,64,51,35,30.07,29.83,9,2,24,0.00
2013-11-12,49.8,36.3,24.6,37.1,21.6,13.6,79,55,46,30.15,29.82,9,3,23,0.02
2013-11-13,36.2,27.6,18.6,15.8,12.7,6.7,81,56,29,30.25,30.14,8,1,16,0.00
2013-11-14,50.5,38.2,26.7,21.1,17.8,14.5,67,46,25,30.14,30.00,6,1,13,0.00
2013-11-15,59.6,43.3,29.1,33.1,21.7,13.0,77,46,20,30.14,30.03,6,0,14,0.00
2013-11-16,60.1,46.1,36.8,38.9,33.9,28.4,90,64,40,30.23,30.12,3,0,7,0.00
2013-11-17,58.3,46.9,35.9,57.2,44.3,33.5,98,91,73,30.21,29.73,2,0,9,0.02
2013-11-18,64.7,59.0,47.3,60.1,43.8,28.9,96,61,28,29.73,29.47,12,3,24,0.12
2013-11-19,47.3,40.2,31.0,32.1,22.0,18.0,60,48,38,30.24,29.63,12,4,25,0.00
2013-11-20,39.3,30.7,21.0,18.1,14.8,11.5,74,53,32,30.55,30.24,8,2,15,0.00
2013-11-21,46.7,32.3,17.0,33.9,21.5,13.3,88,67,34,30.57,30.31,2,0,6,0.00
2013-11-22,51.1,45.8,41.5,49.0,42.6,33.8,96,88,74,30.31,29.77,2,0,6,0.06
2013-11-23,49.4,40.2,29.0,46.7,25.6,11.3,93,58,32,29.91,29.76,12,3,21,0.01
2013-11-24,29.1,23.6,19.5,11.3,2.2,-3.6,51,39,28,30.20,29.82,14,6,32,0.00
2013-11-25,34.3,26.0,15.7,16.0,7.5,1.1,62,46,34,30.35,30.20,7,1,15,0.00
2013-11-26,40.2,35.4,31.5,32.5,19.6,10.8,95,55,39,30.24,29.88,3,0,9,0.07
2013-11-27,61.3,44.5,33.9,60.4,42.6,27.3,100,93,68,29.88,29.19,14,2,25,0.89
2013-11-28,37.2,29.5,21.3,28.1,14.2,6.0,74,54,34,30.38,29.50,12,4,24,0.00
2013-11-29,36.1,27.7,21.4,19.4,15.0,10.4,83,60,40,30.65,30.38,7,1,13,0.00
2013-11-30,33.5,24.6,14.3,19.7,12.1,7.5,79,60,35,30.70,30.32,5,0,10,0.00
2013-12-1,40.5,34.1,29.7,33.3,27.4,18.5,88,77,62,30.32,29.93,2,0,5,0.00
2013-12-2,41.9,36.4,28.8,35.5,32.8,26.7,93,87,77,29.93,29.83,2,0,6,0.00
2013-12-3,44.6,34.7,27.5,38.6,32.1,25.3,99,91,71,29.91,29.79,3,0,8,0.00
2013-12-4,47.1,33.8,24.8,32.4,27.8,22.8,95,80,53,30.10,29.91,3,0,5,0.00
2013-12-5,52.8,40.5,35.6,52.6,37.9,29.4,100,91,76,30.09,29.85,2,0,5,0.01
2013-12-6,53.8,45.3,34.7,53.8,42.4,32.8,100,90,72,30.06,29.77,7,1,17,0.27
2013-12-7,37.6,33.5,29.1,32.7,26.0,18.0,97,75,51,30.40,30.00,10,2,22,0.01
2013-12-8,32.1,28.3,20.6,21.2,17.9,15.9,85,65,53,30.51,30.37,3,0,9,0.00
2013-12-9,33.4,30.3,26.4,32.6,28.2,17.1,97,92,58,30.37,29.85,3,1,9,0.00
2013-12-10,33.5,29.9,22.8,33.0,28.8,20.3,98,96,87,29.96,29.73,3,0,7,0.00
2013-12-11,29.3,23.8,17.5,20.5,17.3,13.8,91,77,61,30.17,29.96,5,1,12,0.00
2013-12-12,24.5,19.5,13.6,17.0,7.7,1.4,84,61,37,30.24,30.02,7,1,17,0.00
2013-12-13,31.3,23.8,17.5,15.9,10.1,4.8,64,56,48,30.29,29.95,8,2,14,0.00
2013-12-14,23.2,16.8,14.0,13.2,9.2,5.6,88,73,52,30.49,29.96,7,2,14,0.00
2013-12-15,31.9,24.5,16.2,29.0,21.7,13.3,93,89,80,29.96,29.39,9,2,17,0.01
2013-12-16,28.7,22.2,8.8,21.0,11.8,2.9,91,66,40,30.14,29.68,8,1,15,0.02
2013-12-17,16.1,10.8,2.4,11.8,6.5,-2.4,86,83,77,30.17,29.88,8,1,17,0.00
2013-12-18,32.9,22.5,15.1,22.8,16.4,10.6,87,78,61,30.03,29.84,7,1,13,0.04
2013-12-19,44.6,32.2,19.7,27.2,22.1,15.8,85,68,43,30.05,29.88,5,1,9,0.06
2013-12-20,51.7,38.9,27.3,34.1,29.8,24.2,90,71,48,30.02,29.85,6,1,14,0.00
2013-12-21,55.0,46.9,39.3,46.1,41.4,33.1,92,81,68,29.89,29.79,5,0,12,0.00
2013-12-22,62.6,57.6,48.6,58.1,53.9,46.4,97,88,76,29.86,29.67,8,2,20,0.00
2013-12-23,59.2,49.3,37.6,56.2,46.5,25.7,98,90,62,30.05,29.82,10,1,20,0.46
2013-12-24,37.3,32.8,24.2,25.8,18.6,7.6,67,56,44,30.20,29.98,9,2,20,0.00
2013-12-25,24.2,20.2,15.2,8.8,4.1,-0.2,62,50,35,30.44,30.20,9,2,17,0.00
2013-12-26,31.2,24.7,18.8,25.9,17.1,8.5,88,73,56,30.38,30.03,3,0,7,0.00
2013-12-27,36.6,26.2,16.4,23.6,18.4,13.7,92,74,51,30.24,30.13,5,0,9,0.01
2013-12-28,48.5,34.2,24.2,27.2,23.5,19.1,83,67,40,30.17,29.94,8,1,13,0.00
2013-12-29,42.5,36.0,28.7,38.1,32.3,24.0,97,86,68,29.94,29.36,10,1,20,0.54
2013-12-30,37.8,30.0,16.7,36.8,21.4,3.3,98,73,44,30.11,29.51,8,2,18,0.00
2013-12-31,27.3,19.9,11.4,19.3,8.5,2.2,82,62,45,30.15,29.95,5,0,10,0.00
2014-1-1,29.8,23.9,14.9,16.9,7.6,2.4,76,51,31,30.30,30.14,6,1,12,0.00
2014-1-2,23.3,16.9,7.9,18.8,13.1,3.8,88,85,78,30.25,29.71,10,4,20,0.00